Beaver Island, Canada
Current Conditions -  °F | °C
As of 2:00 AM on Wednesday 26 Nov 2014 (Local Time) from CYHZ Reporting Station
Broken Clouds Broken Clouds  
Wind Chill: 40°   Ceiling: 24000
Heat Index: 46°   Visibility: 15mi
Dew Point: 43°   Wind: 15mph
Humidity: 87%   Direction: 330°NNW
Pressure: 29.98"   Gusts: NA
Location:  44.75°N, 62.8°W
Report Text: CYHZ 260600Z 33013KT 15SM SCT210 BKN240 08/06 A2998 RMK CI4CI3 SLP156
Loading
Personal Weather Stations






























Interactive Weather Map New forecast layout! Learn more

10-Day Weather Forecast

Advertisements
Track Severe Weather on mobile